Terminal Aerodrome Forecast
Issued by NWS

Home | Current Version | Previous Version | Text Only | Print | Product List | Glossary On
Versions: 1 2 3 4 5 6 7 8 9 10 11 12
000
FTUS41 KBTV 241126
TAFSLK
TAF
KSLK 241126Z 2412/2512 23011G20KT P6SM SCT120
     FM241800 24015G25KT P6SM SCT120
     FM250000 23006KT P6SM SCT250
     FM250600 23003KT P6SM BKN150
     FM250900 24002KT P6SM VCSH SCT050 OVC080=

USA.gov is the U.S. government's official web portal to all federal, state and local government web resources and services.